Time;durP1;ratioP1;P1;durP2;ratioP2;P2;SDS_P1;SDS_P2;PMS_P1;PMS_P2;Temp;Humidity;BMP_temperature;BMP_pressure;BME280_temperature;BME280_humidity;BME280_pressure;Samples;Min_cycle;Max_cycle;Signal;HPM_P1;HPM_P2
2021/12/07 00:00:24;;;;;;;13.80;9.77;;;;;;;2.06;100.00;98190.50;5073475;28;20177;-85
2021/12/07 00:02:54;;;;;;;16.27;9.83;;;;;;;1.95;100.00;98180.53;5073019;28;20232;-85
2021/12/07 00:05:24;;;;;;;13.30;9.83;;;;;;;1.83;100.00;98186.28;5078069;27;20188;-85
2021/12/07 00:07:54;;;;;;;13.17;9.57;;;;;;;1.88;100.00;98182.56;5080983;27;20193;-85
2021/12/07 00:10:22;;;;;;;14.50;9.07;;;;;;;1.82;100.00;98177.59;5083623;27;20283;-85
2021/12/07 00:12:51;;;;;;;13.20;9.77;;;;;;;1.76;100.00;98174.44;5082656;27;20640;-85
2021/12/07 00:15:22;;;;;;;11.60;8.73;;;;;;;1.66;100.00;98168.78;5075069;28;20173;-84
2021/12/07 00:17:52;;;;;;;14.90;10.43;;;;;;;1.51;100.00;98159.84;5081063;27;20710;-84
2021/12/07 00:20:22;;;;;;;12.83;9.93;;;;;;;1.42;100.00;98148.03;5077575;27;20193;-84
2021/12/07 00:22:56;;;;;;;13.87;9.97;;;;;;;1.43;100.00;98152.34;5082837;27;20219;-85
2021/12/07 00:25:24;;;;;;;14.87;10.17;;;;;;;1.38;100.00;98141.28;5095161;27;20196;-86
2021/12/07 00:27:53;;;;;;;15.57;10.47;;;;;;;1.36;100.00;98143.13;5092416;27;20197;-87
2021/12/07 00:30:26;;;;;;;15.73;11.17;;;;;;;1.30;100.00;98143.38;5080294;27;20173;-87
2021/12/07 00:33:08;;;;;;;16.03;11.43;;;;;;;1.26;100.00;98147.03;5081627;27;20639;-88
2021/12/07 00:35:37;;;;;;;14.50;10.70;;;;;;;1.32;100.00;98141.53;5072646;28;20240;-88
2021/12/07 00:38:10;;;;;;;14.40;10.53;;;;;;;1.20;100.00;98138.63;5071706;28;20279;-88
2021/12/07 00:40:41;;;;;;;13.73;9.80;;;;;;;1.34;100.00;98139.69;5084956;27;20201;-85
2021/12/07 00:43:09;;;;;;;13.10;9.60;;;;;;;1.32;100.00;98133.72;5073885;28;20260;-89
2021/12/07 00:45:42;;;;;;;14.10;10.57;;;;;;;1.31;100.00;98136.38;5079143;27;20228;-89
2021/12/07 00:48:10;;;;;;;15.80;10.97;;;;;;;1.26;100.00;98139.22;5080231;27;20180;-88
2021/12/07 00:50:40;;;;;;;15.47;11.23;;;;;;;1.30;100.00;98126.88;5079438;27;20196;-87
2021/12/07 00:53:10;;;;;;;14.23;10.10;;;;;;;1.30;100.00;98116.44;5071642;28;20261;-89
2021/12/07 00:55:45;;;;;;;14.03;10.60;;;;;;;1.20;100.00;98120.38;5072657;28;20195;-87
2021/12/07 00:58:19;;;;;;;12.90;10.10;;;;;;;1.16;100.00;98101.41;5072451;28;20191;-88
2021/12/07 01:00:52;;;;;;;13.77;10.37;;;;;;;1.17;100.00;98104.84;5072145;27;20226;-88
2021/12/07 01:03:21;;;;;;;13.50;9.73;;;;;;;1.24;100.00;98112.31;5069329;28;20233;-88
2021/12/07 01:05:53;;;;;;;12.20;8.67;;;;;;;1.21;100.00;98104.66;5074094;27;20211;-87
2021/12/07 01:25:01;;;;;;;12.37;8.93;;;;;;;1.23;100.00;98104.56;5067749;28;20184;-85
2021/12/07 01:27:32;;;;;;;13.13;9.60;;;;;;;1.27;100.00;98109.59;5072321;28;20209;-86
2021/12/07 01:30:09;;;;;;;12.33;8.77;;;;;;;1.22;100.00;98113.31;5011753;28;20197;-86
2021/12/07 01:44:16;;;;;;;12.53;9.70;;;;;;;1.19;100.00;98111.69;5028297;28;20225;-86
2021/12/07 01:50:09;;;;;;;12.77;9.83;;;;;;;1.12;100.00;98118.91;5062358;28;20201;-85
2021/12/07 01:52:50;;;;;;;12.73;9.50;;;;;;;1.15;100.00;98115.31;5066735;28;20183;-85
2021/12/07 02:00:55;;;;;;;13.80;9.50;;;;;;;1.10;100.00;98104.25;5111957;28;20198;-84
2021/12/07 02:03:27;;;;;;;12.43;9.47;;;;;;;1.01;100.00;98108.09;5112450;28;20218;-83
2021/12/07 02:05:59;;;;;;;12.70;9.53;;;;;;;1.03;100.00;98101.06;5109515;28;20191;-84
2021/12/07 02:08:30;;;;;;;10.70;8.93;;;;;;;1.03;100.00;98097.59;5115183;28;20238;-83
2021/12/07 02:11:02;;;;;;;12.93;9.10;;;;;;;1.05;100.00;98095.78;5116650;28;20198;-83
2021/12/07 02:16:19;;;;;;;10.40;8.00;;;;;;;1.00;100.00;98101.19;5086316;28;20195;-82
2021/12/07 02:18:47;;;;;;;11.17;8.70;;;;;;;1.02;100.00;98091.56;5070732;28;20215;-83
2021/12/07 02:21:20;;;;;;;9.57;8.10;;;;;;;1.03;100.00;98084.56;5071004;28;20252;-83
2021/12/07 02:23:49;;;;;;;11.23;8.70;;;;;;;0.93;100.00;98097.16;5070379;28;20212;-83
2021/12/07 02:26:19;;;;;;;12.23;9.13;;;;;;;0.97;100.00;98095.28;5069766;28;20177;-81
2021/12/07 02:28:52;;;;;;;12.87;8.97;;;;;;;0.95;100.00;98091.88;5109988;28;20705;-82
2021/12/07 02:31:22;;;;;;;12.10;9.93;;;;;;;0.88;100.00;98096.53;5110475;28;20645;-82
2021/12/07 02:33:50;;;;;;;13.00;9.60;;;;;;;0.93;100.00;98101.53;5104895;28;20669;-83
2021/12/07 02:36:22;;;;;;;13.00;9.13;;;;;;;0.94;100.00;98101.44;5108162;28;20199;-82
2021/12/07 02:38:54;;;;;;;13.63;9.77;;;;;;;0.94;100.00;98095.41;5111452;28;20195;-81
2021/12/07 02:41:22;;;;;;;12.40;9.03;;;;;;;0.94;100.00;98111.03;5112301;28;20195;-82
2021/12/07 02:43:51;;;;;;;13.50;10.23;;;;;;;0.92;100.00;98112.88;5111862;28;20221;-82
2021/12/07 02:46:20;;;;;;;12.63;9.63;;;;;;;0.95;100.00;98112.72;5116276;28;20190;-83
2021/12/07 02:48:50;;;;;;;11.00;8.87;;;;;;;0.93;100.00;98109.34;5112397;28;20198;-83
2021/12/07 02:51:19;;;;;;;13.37;9.47;;;;;;;1.00;100.00;98105.56;5024648;28;20251;-82
2021/12/07 02:53:49;;;;;;;14.10;10.03;;;;;;;0.94;100.00;98096.25;5037267;28;20235;-83
2021/12/07 02:56:17;;;;;;;11.33;8.90;;;;;;;1.02;100.00;98099.38;5026882;28;20209;-83
2021/12/07 02:58:46;;;;;;;11.87;8.87;;;;;;;1.08;100.00;98108.72;5029141;28;20197;-82
2021/12/07 03:01:25;;;;;;;12.27;8.80;;;;;;;1.07;100.00;98102.66;5061715;28;20239;-82
2021/12/07 03:04:00;;;;;;;11.47;9.00;;;;;;;1.07;100.00;98114.84;5022271;28;20259;-83
2021/12/07 03:06:45;;;;;;;10.03;8.27;;;;;;;1.09;100.00;98119.06;5048207;28;20189;-80
2021/12/07 03:28:39;;;;;;;7.27;6.43;;;;;;;1.23;100.00;98125.44;5072493;28;20180;-82
2021/12/07 03:31:08;;;;;;;6.50;5.80;;;;;;;1.24;100.00;98121.91;5068074;28;20211;-82
2021/12/07 03:33:38;;;;;;;7.20;5.90;;;;;;;1.31;100.00;98124.19;5071221;28;20281;-82
2021/12/07 03:36:09;;;;;;;6.67;5.80;;;;;;;1.25;100.00;98121.00;5065873;28;20211;-82
2021/12/07 03:38:41;;;;;;;6.63;5.40;;;;;;;1.24;100.00;98125.38;5068709;28;20196;-82
2021/12/07 03:41:11;;;;;;;6.17;5.50;;;;;;;1.35;100.00;98125.78;5075000;28;20249;-83
2021/12/07 03:43:41;;;;;;;5.93;5.03;;;;;;;1.18;100.00;98143.06;5077018;27;20220;-83
2021/12/07 03:46:11;;;;;;;7.57;5.00;;;;;;;1.24;100.00;98142.78;5069286;28;20180;-82
2021/12/07 03:48:40;;;;;;;5.73;5.00;;;;;;;1.10;100.00;98148.59;5069095;28;20176;-82
2021/12/07 03:51:09;;;;;;;5.53;4.93;;;;;;;1.05;100.00;98145.31;5076830;27;20219;-81
2021/12/07 03:53:41;;;;;;;7.13;5.33;;;;;;;1.06;100.00;98149.63;5067025;28;20192;-80
2021/12/07 03:56:17;;;;;;;5.87;4.90;;;;;;;1.10;100.00;98151.19;5074525;28;20274;-81
2021/12/07 03:58:47;;;;;;;5.60;4.47;;;;;;;1.18;100.00;98161.31;5055712;28;20192;-79
2021/12/07 04:01:17;;;;;;;4.27;3.53;;;;;;;1.20;100.00;98157.72;5073211;28;20204;-80
2021/12/07 04:03:46;;;;;;;3.77;2.30;;;;;;;1.37;100.00;98162.22;5089272;28;20210;-79
2021/12/07 04:06:14;;;;;;;3.20;1.80;;;;;;;1.29;100.00;98167.75;5087962;28;20195;-79
2021/12/07 04:08:44;;;;;;;1.40;1.23;;;;;;;1.30;100.00;98156.41;5085824;28;20211;-78
2021/12/07 04:11:17;;;;;;;0.80;0.80;;;;;;;1.33;100.00;98169.31;5087131;28;20192;-79
2021/12/07 04:13:45;;;;;;;2.10;0.90;;;;;;;1.29;100.00;98175.59;5087386;28;20192;-79
2021/12/07 04:16:17;;;;;;;0.97;0.73;;;;;;;1.41;100.00;98172.44;5091311;28;20256;-78
2021/12/07 04:19:03;;;;;;;1.23;1.00;;;;;;;1.36;100.00;98179.63;5093739;28;20658;-78
2021/12/07 04:21:45;;;;;;;1.00;0.80;;;;;;;1.30;100.00;98179.03;5091872;28;20781;-78
2021/12/07 04:24:34;;;;;;;0.87;0.80;;;;;;;1.39;100.00;98179.50;5012391;28;20386;-78
2021/12/07 04:27:11;;;;;;;1.87;0.90;;;;;;;1.34;100.00;98199.69;5038354;28;20200;-78
2021/12/07 04:29:42;;;;;;;0.93;0.80;;;;;;;1.42;100.00;98194.16;5065263;28;20236;-78
2021/12/07 04:32:11;;;;;;;1.90;0.90;;;;;;;1.33;100.00;98197.16;5023225;28;20223;-78
2021/12/07 04:34:40;;;;;;;0.90;0.70;;;;;;;1.41;100.00;98197.69;5074905;28;20199;-78
2021/12/07 04:37:08;;;;;;;4.00;1.03;;;;;;;1.40;100.00;98207.28;5077882;28;20196;-78
2021/12/07 04:39:37;;;;;;;1.07;0.97;;;;;;;1.52;100.00;98211.09;5072877;28;20200;-78
2021/12/07 04:42:06;;;;;;;2.10;1.00;;;;;;;1.44;100.00;98213.19;5068758;28;20242;-78
2021/12/07 04:44:43;;;;;;;1.50;0.87;;;;;;;1.46;100.00;98219.22;5073596;28;20201;-78
2021/12/07 04:47:17;;;;;;;1.13;0.90;;;;;;;1.39;100.00;98225.59;5069052;28;20200;-78
2021/12/07 04:58:03;;;;;;;1.23;1.10;;;;;;;1.38;100.00;98237.78;5073569;28;20192;-78
2021/12/07 05:00:34;;;;;;;1.73;1.30;;;;;;;1.44;100.00;98237.53;5069353;28;20192;-78
2021/12/07 05:03:07;;;;;;;1.63;1.30;;;;;;;1.35;100.00;98240.53;5082210;28;20223;-78
2021/12/07 05:05:44;;;;;;;1.43;1.20;;;;;;;1.38;100.00;98240.41;5087225;28;20216;-78
2021/12/07 05:08:17;;;;;;;2.13;1.30;;;;;;;1.44;100.00;98247.09;5041617;28;20191;-78
2021/12/07 05:11:12;;;;;;;1.70;1.60;;;;;;;1.48;100.00;98253.06;5090970;28;20300;-78
2021/12/07 05:13:52;;;;;;;2.00;1.50;;;;;;;1.46;100.00;98255.75;5090655;28;20196;-78
2021/12/07 05:38:51;;;;;;;3.73;1.80;;;;;;;1.71;100.00;98298.13;5067210;27;20181;-79
2021/12/07 05:41:20;;;;;;;1.70;1.43;;;;;;;1.75;100.00;98303.25;5064897;28;20208;-79
2021/12/07 05:43:50;;;;;;;1.63;1.50;;;;;;;1.76;100.00;98310.16;5063849;28;20199;-80
2021/12/07 05:46:19;;;;;;;2.07;1.47;;;;;;;1.77;100.00;98319.69;5013056;28;20248;-80
2021/12/07 05:48:47;;;;;;;2.80;1.27;;;;;;;1.85;100.00;98322.84;5067756;28;20180;-80
2021/12/07 05:51:15;;;;;;;1.30;1.20;;;;;;;1.86;100.00;98325.38;5064457;28;20188;-79
2021/12/07 05:53:44;;;;;;;1.83;1.53;;;;;;;1.87;100.00;98332.28;5145905;27;20196;-80
2021/12/07 05:56:13;;;;;;;1.70;1.40;;;;;;;1.84;100.00;98327.22;5150261;27;20212;-80
2021/12/07 05:58:42;;;;;;;2.00;1.63;;;;;;;1.84;100.00;98326.34;5095221;27;20186;-80
2021/12/07 06:01:14;;;;;;;1.50;1.40;;;;;;;1.91;100.00;98336.44;5150756;27;20178;-79
2021/12/07 06:03:42;;;;;;;1.50;1.20;;;;;;;1.88;100.00;98339.19;5151282;27;20201;-79
2021/12/07 06:06:15;;;;;;;2.17;1.73;;;;;;;1.97;100.00;98345.81;5151079;27;20209;-80
2021/12/07 06:08:44;;;;;;;3.17;1.67;;;;;;;1.96;100.00;98346.72;5145510;27;20206;-80
2021/12/07 06:11:15;;;;;;;3.97;2.13;;;;;;;1.97;100.00;98353.63;5135752;27;20185;-80
2021/12/07 06:13:44;;;;;;;3.40;1.87;;;;;;;1.99;100.00;98363.09;5063047;28;20214;-80
2021/12/07 06:16:24;;;;;;;2.83;1.77;;;;;;;2.02;100.00;98369.94;5064668;28;20216;-80
2021/12/07 06:18:52;;;;;;;2.57;1.70;;;;;;;1.95;100.00;98371.97;5109594;28;20194;-80
2021/12/07 06:21:20;;;;;;;3.73;1.60;;;;;;;1.95;100.00;98368.53;5120218;28;20713;-80
2021/12/07 06:23:49;;;;;;;2.90;1.57;;;;;;;2.04;100.00;98382.97;5122386;28;20245;-79
2021/12/07 06:26:19;;;;;;;2.70;1.80;;;;;;;2.03;100.00;98373.41;5075820;28;20222;-80
2021/12/07 06:28:47;;;;;;;3.07;1.60;;;;;;;2.00;100.00;98383.06;5028332;28;20190;-80
2021/12/07 06:31:27;;;;;;;2.83;1.87;;;;;;;1.99;100.00;98388.34;5023334;28;20383;-80
2021/12/07 06:33:55;;;;;;;2.33;2.10;;;;;;;2.00;100.00;98393.50;4992253;28;20202;-81
2021/12/07 06:36:25;;;;;;;2.77;1.53;;;;;;;1.99;100.00;98386.59;5037196;28;20207;-80
2021/12/07 06:38:53;;;;;;;3.77;2.47;;;;;;;1.96;100.00;98391.09;5065526;28;20196;-80
2021/12/07 06:41:33;;;;;;;3.60;2.17;;;;;;;1.93;100.00;98399.03;5068311;28;20655;-80
2021/12/07 06:44:06;;;;;;;2.47;2.20;;;;;;;2.11;100.00;98403.50;5071915;28;20196;-81
2021/12/07 06:46:37;;;;;;;3.90;2.40;;;;;;;2.15;100.00;98417.31;5074530;28;20209;-81
2021/12/07 06:49:09;;;;;;;3.37;2.50;;;;;;;2.08;100.00;98421.06;5071777;28;20200;-81
2021/12/07 06:51:37;;;;;;;3.77;2.90;;;;;;;2.01;100.00;98434.38;5069083;28;20181;-81
2021/12/07 06:54:06;;;;;;;3.60;2.47;;;;;;;2.12;100.00;98448.75;5073573;28;20224;-81
2021/12/07 06:56:35;;;;;;;4.93;2.80;;;;;;;2.12;100.00;98447.00;5067021;28;20200;-80
2021/12/07 06:59:05;;;;;;;2.97;2.67;;;;;;;2.15;100.00;98456.47;5065090;28;20256;-79
2021/12/07 07:01:35;;;;;;;4.10;2.80;;;;;;;2.18;100.00;98454.59;5132871;27;20202;-81
2021/12/07 07:04:07;;;;;;;4.20;3.00;;;;;;;2.17;100.00;98460.72;5115998;27;20218;-81
2021/12/07 07:06:36;;;;;;;5.67;3.10;;;;;;;2.24;100.00;98461.34;5138786;27;20270;-81
2021/12/07 07:09:05;;;;;;;4.60;3.50;;;;;;;2.29;100.00;98460.22;5136087;27;20190;-81
2021/12/07 07:11:33;;;;;;;4.63;3.03;;;;;;;2.23;100.00;98470.94;5138254;27;20198;-81
2021/12/07 07:14:02;;;;;;;4.60;3.60;;;;;;;2.25;100.00;98481.31;5130809;27;20690;-81
2021/12/07 07:16:31;;;;;;;7.97;3.60;;;;;;;2.17;100.00;98483.38;5101271;27;20205;-81
2021/12/07 07:18:59;;;;;;;5.70;3.90;;;;;;;2.21;100.00;98479.72;5118374;27;20196;-81
2021/12/07 07:21:29;;;;;;;6.30;3.90;;;;;;;2.17;100.00;98484.22;5052577;28;20275;-81
2021/12/07 07:23:58;;;;;;;5.50;4.13;;;;;;;2.21;100.00;98484.94;5047911;28;20195;-80
2021/12/07 07:26:26;;;;;;;6.00;4.20;;;;;;;2.18;100.00;98490.31;5049419;28;20240;-80
2021/12/07 07:28:54;;;;;;;7.93;4.57;;;;;;;2.21;100.00;98498.00;5050412;28;20201;-80
2021/12/07 07:31:23;;;;;;;5.60;4.30;;;;;;;2.17;100.00;98499.06;5049683;28;20261;-80
2021/12/07 07:33:53;;;;;;;6.00;4.63;;;;;;;2.09;100.00;98490.69;5052529;28;20197;-80
2021/12/07 07:36:22;;;;;;;6.63;5.50;;;;;;;2.02;100.00;98497.91;5052479;28;20197;-80
2021/12/07 07:38:52;;;;;;;103.93;58.83;;;;;;;2.02;100.00;98500.50;5057741;27;20201;-80
2021/12/07 07:41:24;;;;;;;36.53;20.47;;;;;;;2.03;100.00;98504.84;5031971;28;20234;-80
2021/12/07 07:43:53;;;;;;;124.90;63.80;;;;;;;1.99;100.00;98503.25;5049050;28;20246;-80
2021/12/07 07:46:22;;;;;;;62.80;32.00;;;;;;;1.95;100.00;98512.13;5012967;28;20212;-81
2021/12/07 07:48:51;;;;;;;205.17;89.97;;;;;;;2.00;100.00;98510.19;5051351;28;20213;-81
2021/12/07 07:51:19;;;;;;;29.50;15.67;;;;;;;1.94;100.00;98511.28;5048674;28;20229;-81
2021/12/07 07:53:48;;;;;;;159.80;78.53;;;;;;;1.94;100.00;98516.50;5057721;27;20250;-81
2021/12/07 07:56:21;;;;;;;37.20;19.40;;;;;;;2.10;100.00;98532.41;5096588;28;20193;-82
2021/12/07 07:58:50;;;;;;;67.17;39.43;;;;;;;2.10;100.00;98539.38;5017822;28;20197;-82
2021/12/07 08:01:18;;;;;;;13.83;8.07;;;;;;;2.21;100.00;98553.72;5047398;28;20197;-82
2021/12/07 08:03:46;;;;;;;10.90;7.30;;;;;;;2.29;100.00;98550.78;5051758;28;20231;-82
2021/12/07 08:06:21;;;;;;;15.77;8.37;;;;;;;2.37;100.00;98560.94;5050783;28;20201;-82
2021/12/07 08:08:49;;;;;;;15.47;8.00;;;;;;;2.33;100.00;98565.47;5056849;27;20217;-81
2021/12/07 08:11:19;;;;;;;12.90;7.63;;;;;;;2.41;100.00;98563.34;5047928;28;20209;-82
2021/12/07 08:13:54;;;;;;;13.13;7.50;;;;;;;2.43;100.00;98566.78;5051539;28;20257;-81
2021/12/07 08:16:23;;;;;;;16.90;8.40;;;;;;;2.56;100.00;98572.34;5117168;27;20200;-82
2021/12/07 08:18:52;;;;;;;17.60;8.17;;;;;;;2.54;100.00;98569.81;5051084;28;20193;-81
2021/12/07 08:21:23;;;;;;;14.90;7.87;;;;;;;2.67;100.00;98569.28;5051281;28;20197;-82
2021/12/07 08:23:51;;;;;;;17.20;9.10;;;;;;;2.48;100.00;98572.66;5033276;28;20208;-82
2021/12/07 08:26:25;;;;;;;16.67;8.60;;;;;;;2.54;100.00;98568.97;5060466;27;20695;-81
2021/12/07 08:28:55;;;;;;;14.23;10.17;;;;;;;2.47;100.00;98573.56;5049064;28;20377;-82
2021/12/07 08:31:28;;;;;;;31.93;23.07;;;;;;;2.43;100.00;98579.00;5057131;27;20200;-81
2021/12/07 08:34:00;;;;;;;19.80;13.40;;;;;;;2.48;100.00;98577.88;5051215;28;20208;-82
2021/12/07 08:36:29;;;;;;;17.27;11.57;;;;;;;2.34;100.00;98572.38;5062383;27;20194;-82
2021/12/07 08:38:58;;;;;;;16.23;10.00;;;;;;;2.37;100.00;98567.03;5048498;28;20193;-82
2021/12/07 08:41:37;;;;;;;16.23;10.13;;;;;;;2.39;100.00;98565.19;5047207;28;20196;-83
2021/12/07 08:44:07;;;;;;;16.20;9.77;;;;;;;2.54;100.00;98563.72;5046685;28;20250;-83
2021/12/07 08:46:36;;;;;;;17.80;10.90;;;;;;;2.66;100.00;98578.06;5051288;28;20199;-83
2021/12/07 08:49:04;;;;;;;17.20;9.53;;;;;;;2.88;100.00;98576.22;5031176;28;20220;-83
2021/12/07 08:51:33;;;;;;;18.60;10.20;;;;;;;2.93;100.00;98584.75;5016070;28;20193;-82
2021/12/07 08:54:18;;;;;;;19.03;10.60;;;;;;;3.06;100.00;98575.44;5049526;28;20234;-81
2021/12/07 08:59:44;;;;;;;16.77;9.47;;;;;;;3.07;100.00;98589.38;5046985;28;20213;-81
2021/12/07 09:02:17;;;;;;;51.93;39.37;;;;;;;2.97;100.00;98593.28;5048886;28;20189;-81
2021/12/07 09:04:50;;;;;;;16.77;10.63;;;;;;;3.11;100.00;98597.03;5038841;28;20197;-81
2021/12/07 09:07:19;;;;;;;19.10;10.93;;;;;;;3.17;100.00;98599.38;5049081;28;20228;-81
2021/12/07 09:09:50;;;;;;;20.27;12.20;;;;;;;3.01;100.00;98595.75;5053982;28;20272;-84
2021/12/07 09:12:21;;;;;;;16.97;9.83;;;;;;;2.94;100.00;98603.91;5016368;28;20284;-85
2021/12/07 09:14:53;;;;;;;20.37;10.20;;;;;;;2.93;100.00;98586.50;5051083;28;20186;-86
2021/12/07 09:17:23;;;;;;;32.57;22.70;;;;;;;3.03;100.00;98580.81;5048869;28;20203;-86
2021/12/07 09:19:52;;;;;;;32.83;26.33;;;;;;;3.14;100.00;98575.97;5050705;28;20228;-87
2021/12/07 09:22:21;;;;;;;18.87;11.10;;;;;;;3.34;100.00;98590.78;5067809;28;20364;-87
2021/12/07 09:24:55;;;;;;;16.83;9.43;;;;;;;3.26;100.00;98594.66;5071689;28;20241;-87
2021/12/07 09:27:25;;;;;;;17.13;9.37;;;;;;;3.43;100.00;98602.63;5066463;28;20216;-88
2021/12/07 09:29:54;;;;;;;21.37;8.30;;;;;;;3.40;100.00;98608.88;5065204;28;20200;-88
2021/12/07 09:32:23;;;;;;;19.10;8.60;;;;;;;3.45;100.00;98613.88;5066252;28;20188;-88
2021/12/07 09:34:52;;;;;;;34.37;19.93;;;;;;;3.29;100.00;98600.63;5070494;28;20215;-88
2021/12/07 09:37:21;;;;;;;18.93;11.00;;;;;;;3.22;100.00;98608.81;5063212;28;20212;-88
2021/12/07 09:39:50;;;;;;;22.10;10.23;;;;;;;3.27;100.00;98604.22;5085931;27;20193;-87
2021/12/07 09:42:18;;;;;;;17.30;9.80;;;;;;;3.23;100.00;98605.28;5155391;27;20197;-87
2021/12/07 09:44:58;;;;;;;22.63;10.27;;;;;;;3.28;100.00;98604.19;5155098;27;20197;-86
2021/12/07 09:47:30;;;;;;;20.80;9.07;;;;;;;3.35;100.00;98605.59;5153536;27;20227;-86
2021/12/07 09:49:59;;;;;;;24.23;8.80;;;;;;;3.41;100.00;98614.94;5142635;27;20332;-85
2021/12/07 09:52:28;;;;;;;20.50;8.93;;;;;;;3.40;100.00;98614.09;5151844;27;20234;-85
2021/12/07 09:54:57;;;;;;;12.83;7.53;;;;;;;3.50;100.00;98603.22;5151155;27;20201;-85
2021/12/07 09:57:29;;;;;;;18.57;8.87;;;;;;;3.42;100.00;98621.88;5143459;27;20190;-86
2021/12/07 10:00:01;;;;;;;23.10;8.40;;;;;;;3.52;100.00;98632.78;5154939;27;20194;-86
2021/12/07 10:02:30;;;;;;;17.20;8.67;;;;;;;3.41;100.00;98635.88;5155093;27;20196;-85
2021/12/07 10:05:00;;;;;;;17.50;7.40;;;;;;;3.45;100.00;98640.06;5153216;27;20202;-85
2021/12/07 10:07:28;;;;;;;15.90;7.70;;;;;;;3.43;100.00;98641.91;5153837;27;20186;-86
2021/12/07 10:09:57;;;;;;;14.57;7.53;;;;;;;3.44;100.00;98646.22;5154587;27;20217;-86
2021/12/07 10:12:27;;;;;;;16.93;7.47;;;;;;;3.47;100.00;98651.31;5152608;27;20189;-85
2021/12/07 10:14:55;;;;;;;17.90;7.77;;;;;;;3.40;100.00;98649.91;5155391;27;20182;-86
2021/12/07 10:17:26;;;;;;;20.50;7.67;;;;;;;3.37;100.00;98637.75;5158850;27;20196;-89
2021/12/07 10:19:54;;;;;;;18.63;7.63;;;;;;;3.39;100.00;98622.03;5159043;27;20190;-85
2021/12/07 10:22:23;;;;;;;14.63;6.17;;;;;;;3.49;100.00;98628.56;5155923;27;20190;-85
2021/12/07 10:24:55;;;;;;;15.20;6.60;;;;;;;3.53;100.00;98630.09;5154972;27;20200;-85
2021/12/07 10:27:36;;;;;;;15.40;5.80;;;;;;;3.51;100.00;98624.09;5156588;27;20232;-85
2021/12/07 10:30:09;;;;;;;9.90;4.73;;;;;;;3.59;100.00;98626.38;5157405;27;20706;-85
2021/12/07 10:32:41;;;;;;;12.20;4.40;;;;;;;3.63;100.00;98641.03;5154139;27;20198;-85
2021/12/07 10:35:32;;;;;;;13.47;4.80;;;;;;;3.62;100.00;98629.69;5159053;27;20205;-85
2021/12/07 10:38:09;;;;;;;11.77;4.90;;;;;;;3.66;100.00;98630.41;5157387;27;20197;-85
2021/12/07 10:40:37;;;;;;;11.67;4.73;;;;;;;3.53;100.00;98626.63;5155710;27;20189;-85
2021/12/07 10:43:06;;;;;;;12.73;5.50;;;;;;;3.52;100.00;98625.78;5151714;27;20230;-86
2021/12/07 10:45:34;;;;;;;11.93;5.13;;;;;;;3.63;100.00;98627.94;5152212;27;20185;-89
2021/12/07 10:48:24;;;;;;;12.67;5.47;;;;;;;3.62;100.00;98627.09;5158434;27;20192;-89
2021/12/07 10:50:53;;;;;;;10.53;4.43;;;;;;;3.63;100.00;98626.16;5158481;27;20197;-88
2021/12/07 10:53:21;;;;;;;13.37;5.27;;;;;;;3.55;100.00;98630.88;5146611;27;20201;-89
2021/12/07 10:55:51;;;;;;;10.17;4.17;;;;;;;3.66;100.00;98623.41;5151095;27;20230;-88
2021/12/07 10:58:30;;;;;;;10.70;4.40;;;;;;;3.61;100.00;98632.38;5154382;27;20636;-88
2021/12/07 11:01:03;;;;;;;10.23;3.57;;;;;;;3.73;100.00;98616.13;5158161;27;20186;-88
2021/12/07 11:03:33;;;;;;;10.60;3.87;;;;;;;3.62;100.00;98621.00;5155590;27;20178;-88
2021/12/07 11:06:03;;;;;;;17.83;4.80;;;;;;;3.57;100.00;98628.19;5158695;27;20174;-88
2021/12/07 11:08:33;;;;;;;12.60;3.80;;;;;;;3.62;100.00;98613.16;5152540;27;20190;-88
2021/12/07 11:11:03;;;;;;;11.43;4.17;;;;;;;3.67;100.00;98613.81;5155560;27;20268;-88
2021/12/07 11:13:36;;;;;;;15.63;7.40;;;;;;;3.69;100.00;98615.44;5152763;27;20205;-89
2021/12/07 11:16:10;;;;;;;12.03;5.90;;;;;;;3.74;100.00;98615.19;5155639;27;20198;-88
2021/12/07 11:18:44;;;;;;;15.03;6.43;;;;;;;3.74;100.00;98612.59;5155612;27;20231;-88
2021/12/07 11:21:15;;;;;;;10.13;4.07;;;;;;;3.79;100.00;98621.09;5154421;27;20171;-88
2021/12/07 11:23:48;;;;;;;14.13;4.73;;;;;;;3.84;100.00;98611.25;5154568;27;20203;-89
2021/12/07 11:31:56;;;;;;;10.50;4.43;;;;;;;3.98;100.00;98603.63;5167716;27;20205;-86
2021/12/07 11:34:30;;;;;;;10.40;3.30;;;;;;;3.91;100.00;98607.44;5153737;27;20273;-86
2021/12/07 11:37:03;;;;;;;12.30;3.70;;;;;;;4.13;100.00;98601.19;5156082;27;20205;-86
2021/12/07 11:39:35;;;;;;;15.70;3.73;;;;;;;4.09;100.00;98599.66;5155164;27;20194;-86
2021/12/07 11:42:07;;;;;;;9.77;3.83;;;;;;;4.18;100.00;98597.44;5157328;27;20192;-86
2021/12/07 11:44:39;;;;;;;8.27;3.10;;;;;;;4.48;100.00;98586.41;5151044;27;20196;-86
2021/12/07 11:47:09;;;;;;;9.07;3.10;;;;;;;4.82;100.00;98586.44;5157112;27;20185;-85
2021/12/07 11:49:41;;;;;;;7.67;2.80;;;;;;;5.20;100.00;98569.69;5151887;27;20193;-86
2021/12/07 11:52:13;;;;;;;7.23;2.53;;;;;;;5.65;100.00;98576.94;5155636;27;20201;-86
2021/12/07 11:54:45;;;;;;;8.23;2.23;;;;;;;6.16;100.00;98578.53;5158001;27;20203;-85
2021/12/07 11:57:16;;;;;;;7.13;2.30;;;;;;;5.96;100.00;98584.03;5156230;27;20229;-85
2021/12/07 11:59:50;;;;;;;7.17;2.83;;;;;;;5.99;100.00;98571.59;5131988;27;20194;-85
2021/12/07 12:02:19;;;;;;;9.37;2.60;;;;;;;6.14;100.00;98566.41;5131698;27;20195;-85
2021/12/07 12:04:49;;;;;;;5.60;2.07;;;;;;;6.32;100.00;98565.38;5129810;27;20219;-85
2021/12/07 12:07:20;;;;;;;7.67;2.03;;;;;;;6.38;100.00;98565.03;5072419;27;20194;-85
2021/12/07 12:09:51;;;;;;;5.73;2.20;;;;;;;6.41;100.00;98542.97;5082865;27;20210;-85
2021/12/07 12:12:26;;;;;;;6.80;1.83;;;;;;;6.69;100.00;98547.50;5123572;27;20637;-85
2021/12/07 12:15:05;;;;;;;8.27;2.47;;;;;;;6.28;100.00;98532.31;5134015;27;20186;-84
2021/12/07 12:17:46;;;;;;;21.90;17.50;;;;;;;5.81;100.00;98527.88;5138864;27;20200;-85
2021/12/07 12:20:44;;;;;;;6.03;2.53;;;;;;;5.75;100.00;98522.97;5149899;27;20198;-85
2021/12/07 12:23:24;;;;;;;7.57;2.13;;;;;;;5.72;100.00;98518.72;5154333;27;20213;-85
2021/12/07 12:25:57;;;;;;;9.77;2.60;;;;;;;5.55;100.00;98523.19;5154140;27;20228;-85
2021/12/07 12:28:27;;;;;;;10.70;2.67;;;;;;;5.64;100.00;98510.41;5151398;27;20201;-85
2021/12/07 12:30:57;;;;;;;6.80;2.00;;;;;;;5.16;100.00;98512.09;5151262;27;20213;-85
2021/12/07 12:33:43;;;;;;;7.33;2.57;;;;;;;5.09;100.00;98512.50;5129355;27;20197;-85
2021/12/07 12:36:15;;;;;;;9.03;2.90;;;;;;;4.86;100.00;98508.44;5052331;28;20189;-85
2021/12/07 12:38:58;;;;;;;10.43;3.03;;;;;;;4.96;100.00;98512.28;5050162;28;20208;-85
2021/12/07 12:41:27;;;;;;;8.47;2.63;;;;;;;5.12;100.00;98510.56;5051690;28;20257;-85
2021/12/07 12:43:58;;;;;;;11.87;2.70;;;;;;;5.14;100.00;98505.25;5011957;28;20197;-86
2021/12/07 12:46:30;;;;;;;8.37;2.47;;;;;;;5.49;100.00;98495.47;4991053;28;20206;-86
2021/12/07 12:49:03;;;;;;;11.97;3.10;;;;;;;5.78;100.00;98500.91;4990979;28;20191;-85
2021/12/07 12:51:44;;;;;;;11.47;4.00;;;;;;;5.49;100.00;98498.09;4984438;28;20227;-85
2021/12/07 12:54:13;;;;;;;6.73;2.50;;;;;;;5.30;100.00;98503.47;4987614;28;20207;-86
2021/12/07 12:56:42;;;;;;;7.60;3.53;;;;;;;5.54;100.00;98484.72;4990757;28;20203;-85
2021/12/07 12:59:12;;;;;;;8.90;2.50;;;;;;;6.47;100.00;98487.41;4988062;28;20198;-85
2021/12/07 13:01:44;;;;;;;6.83;2.23;;;;;;;6.80;100.00;98492.44;4993237;28;20227;-85
2021/12/07 13:04:16;;;;;;;5.60;2.07;;;;;;;6.12;100.00;98482.38;5013463;28;20197;-85
2021/12/07 13:06:55;;;;;;;8.47;2.53;;;;;;;5.60;100.00;98477.38;5060182;28;20249;-83
2021/12/07 13:09:32;;;;;;;5.80;1.80;;;;;;;5.25;100.00;98483.66;5070885;28;20213;-82
2021/12/07 13:12:05;;;;;;;4.47;1.77;;;;;;;5.24;100.00;98474.94;5070827;28;20201;-83
2021/12/07 13:14:59;;;;;;;7.40;1.90;;;;;;;5.83;100.00;98473.47;5069404;28;20193;-83
2021/12/07 13:17:36;;;;;;;5.57;1.90;;;;;;;6.34;100.00;98474.09;5062073;28;20193;-85
2021/12/07 13:20:21;;;;;;;6.00;1.57;;;;;;;6.34;100.00;98463.56;5053000;28;20192;-84
2021/12/07 13:22:54;;;;;;;8.93;2.20;;;;;;;6.75;100.00;98465.53;5051183;28;20189;-84
2021/12/07 13:25:29;;;;;;;4.77;1.70;;;;;;;7.81;100.00;98462.50;5074298;27;20213;-84